Time;durP1;ratioP1;P1;durP2;ratioP2;P2;SDS_P1;SDS_P2;PMS_P1;PMS_P2;Temp;Humidity;BMP_temperature;BMP_pressure;BME280_temperature;BME280_humidity;BME280_pressure;Samples;Min_cycle;Max_cycle;Signal;HPM_P1;HPM_P2
2021/05/18 00:00:51;;;;;;;15.25;8.38;;;12.40;99.90;;;;;;1892665;74;21126;-77
2021/05/18 00:03:19;;;;;;;12.85;7.87;;;12.30;99.90;;;;;;1892031;74;21687;-77
2021/05/18 00:05:56;;;;;;;17.10;7.80;;;12.40;99.90;;;;;;1893776;74;21564;-77
2021/05/18 00:08:25;;;;;;;13.88;8.10;;;12.40;99.90;;;;;;1894846;74;21168;-76
2021/05/18 00:13:43;;;;;;;12.80;7.97;;;12.30;99.90;;;;;;1843930;76;21932;-76
2021/05/18 00:16:11;;;;;;;16.50;7.33;;;12.20;99.90;;;;;;1844521;76;21189;-76
2021/05/18 00:18:40;;;;;;;11.63;7.35;;;12.30;99.90;;;;;;1818281;77;21196;-75
2021/05/18 00:21:08;;;;;;;13.50;7.45;;;12.30;99.90;;;;;;1850020;76;21557;-76
2021/05/18 00:23:36;;;;;;;15.53;7.85;;;12.30;99.90;;;;;;1816923;76;21122;-75
2021/05/18 00:26:06;;;;;;;15.78;7.60;;;12.30;99.90;;;;;;1846603;76;21186;-77
2021/05/18 00:28:33;;;;;;;14.50;8.28;;;12.30;99.90;;;;;;1812551;78;21563;-76
2021/05/18 00:31:01;;;;;;;13.68;8.10;;;12.40;99.90;;;;;;1814777;78;21057;-75
2021/05/18 00:33:30;;;;;;;17.32;8.08;;;12.40;99.90;;;;;;1816213;78;21059;-76
2021/05/18 00:35:58;;;;;;;14.90;8.15;;;12.40;99.90;;;;;;1816144;78;21063;-76
2021/05/18 00:38:27;;;;;;;20.25;8.83;;;12.40;99.90;;;;;;1819415;78;21119;-76
2021/05/18 00:40:54;;;;;;;14.28;8.13;;;12.40;99.90;;;;;;1815643;78;21158;-78
2021/05/18 00:43:22;;;;;;;15.63;8.35;;;12.40;99.90;;;;;;1815496;78;21052;-75
2021/05/18 00:45:51;;;;;;;16.70;8.50;;;12.30;99.90;;;;;;1817415;78;21529;-76
2021/05/18 00:48:21;;;;;;;12.53;7.90;;;12.20;99.90;;;;;;1813416;78;21401;-77
2021/05/18 00:50:51;;;;;;;14.73;8.53;;;12.20;99.90;;;;;;1816180;78;21096;-77
2021/05/18 00:53:20;;;;;;;14.68;8.60;;;12.20;99.90;;;;;;1815235;78;21103;-76
2021/05/18 00:55:57;;;;;;;16.77;8.83;;;12.30;99.90;;;;;;1813864;78;21589;-76
2021/05/18 00:58:32;;;;;;;17.98;9.08;;;12.20;99.90;;;;;;1815651;78;21059;-76
2021/05/18 01:01:10;;;;;;;21.05;10.13;;;12.20;99.90;;;;;;1816807;73;21380;-74
2021/05/18 01:03:38;;;;;;;20.52;9.93;;;12.30;99.90;;;;;;1820624;77;21138;-74
2021/05/18 01:06:22;;;;;;;17.60;9.43;;;12.50;99.90;;;;;;1823082;77;21047;-75
2021/05/18 01:08:49;;;;;;;;;;;12.40;99.90;;;;;;1826237;77;21198;-75
2021/05/18 01:11:20;;;;;;;20.52;10.13;;;12.30;99.90;;;;;;1816482;77;20259;-74
2021/05/18 01:13:48;;;;;;;18.67;10.55;;;12.20;99.90;;;;;;1800600;78;21106;-74
2021/05/18 01:16:16;;;;;;;18.62;10.25;;;12.20;99.90;;;;;;1801688;78;21598;-74
2021/05/18 01:18:47;;;;;;;18.17;10.38;;;12.40;99.90;;;;;;1805699;78;21114;-74
2021/05/18 01:21:16;;;;;;;15.47;10.57;;;12.30;99.90;;;;;;1798649;78;21158;-73
2021/05/18 01:23:45;;;;;;;21.20;12.30;;;12.50;99.90;;;;;;1791206;78;21106;-73
2021/05/18 01:26:14;;;;;;;16.30;10.68;;;12.40;99.90;;;;;;1804205;78;21631;-74
2021/05/18 01:28:43;;;;;;;20.88;11.38;;;12.40;99.90;;;;;;1806320;78;21094;-74
2021/05/18 01:31:13;;;;;;;22.95;11.93;;;12.30;99.90;;;;;;1802296;77;21255;-74
2021/05/18 01:33:40;;;;;;;20.97;11.48;;;12.30;99.90;;;;;;1806865;78;21114;-75
2021/05/18 01:36:10;;;;;;;20.65;11.63;;;12.40;99.90;;;;;;1804565;78;21118;-74
2021/05/18 01:38:44;;;;;;;19.48;11.22;;;12.30;99.90;;;;;;1806002;78;21099;-74
2021/05/18 01:43:56;;;;;;;21.25;11.85;;;12.20;99.90;;;;;;1807046;78;21236;-74
2021/05/18 01:46:26;;;;;;;19.70;11.80;;;12.30;99.90;;;;;;1808381;78;21184;-75
2021/05/18 01:48:59;;;;;;;21.52;12.15;;;12.30;99.90;;;;;;1805299;78;21106;-74
2021/05/18 01:51:29;;;;;;;20.25;11.95;;;12.30;99.90;;;;;;1807724;77;21758;-75
2021/05/18 01:53:59;;;;;;;19.95;11.88;;;12.20;99.90;;;;;;1805707;78;21476;-75
2021/05/18 01:56:42;;;;;;;23.20;11.97;;;12.10;99.90;;;;;;1806355;78;21543;-75
2021/05/18 01:59:04;;;;;;;19.92;11.88;;;12.10;99.90;;;;;;1799232;78;21154;-75
2021/05/18 02:01:32;;;;;;;26.12;11.75;;;12.00;99.90;;;;;;1804809;78;21129;-75
2021/05/18 02:04:00;;;;;;;21.42;11.45;;;11.90;99.90;;;;;;1803494;78;21121;-74
2021/05/18 02:06:28;;;;;;;20.00;11.15;;;11.80;99.90;;;;;;1804771;78;21078;-74
2021/05/18 02:08:56;;;;;;;24.20;12.07;;;12.00;99.90;;;;;;1799812;78;21043;-74
2021/05/18 02:11:24;;;;;;;20.48;11.50;;;12.00;99.90;;;;;;1800609;78;21217;-74
2021/05/18 02:13:55;;;;;;;22.95;11.97;;;12.00;99.90;;;;;;1805992;78;21556;-74
2021/05/18 02:16:35;;;;;;;25.72;12.05;;;12.00;99.90;;;;;;1804318;78;21646;-75
2021/05/18 02:24:46;;;;;;;23.05;11.75;;;12.10;99.90;;;;;;1804036;78;21174;-75
2021/05/18 02:27:09;;;;;;;21.12;11.93;;;12.10;99.90;;;;;;1802005;78;21611;-75
2021/05/18 02:29:36;;;;;;;21.82;11.78;;;12.00;99.90;;;;;;1803279;78;21178;-75
2021/05/18 02:32:04;;;;;;;28.00;13.18;;;12.10;99.90;;;;;;1806628;77;21161;-74
2021/05/18 02:34:32;;;;;;;19.80;11.88;;;12.40;99.90;;;;;;1802843;78;21161;-74
2021/05/18 02:37:02;;;;;;;23.12;12.53;;;12.30;99.90;;;;;;1809954;78;21122;-74
2021/05/18 02:39:29;;;;;;;24.50;14.20;;;12.40;99.90;;;;;;1802701;78;21552;-75
2021/05/18 02:41:56;;;;;;;26.30;13.62;;;12.30;99.90;;;;;;1801810;78;21256;-75
2021/05/18 02:44:33;;;;;;;24.80;13.32;;;12.20;99.90;;;;;;1801923;78;21117;-75
2021/05/18 02:49:39;;;;;;;30.85;13.45;;;12.20;99.90;;;;;;1802194;78;21190;-75
2021/05/18 02:52:07;;;;;;;24.45;13.28;;;12.10;99.90;;;;;;1803465;78;21161;-75
2021/05/18 02:54:34;;;;;;;24.40;13.40;;;12.10;99.90;;;;;;1807610;78;21529;-75
2021/05/18 02:57:05;;;;;;;26.77;13.35;;;12.10;99.90;;;;;;1802290;78;21109;-75
2021/05/18 02:59:31;;;;;;;23.38;13.65;;;12.20;99.90;;;;;;1799517;77;21136;-75
2021/05/18 03:02:01;;;;;;;26.10;13.90;;;12.10;99.90;;;;;;1799731;78;21149;-75
2021/05/18 03:04:30;;;;;;;26.17;13.18;;;12.10;99.90;;;;;;1805241;78;21114;-75
2021/05/18 03:06:58;;;;;;;26.10;13.48;;;12.10;99.90;;;;;;1802915;78;21153;-75
2021/05/18 03:09:26;;;;;;;24.50;12.20;;;12.20;99.90;;;;;;1796072;78;21192;-75
2021/05/18 03:11:55;;;;;;;24.72;12.93;;;12.10;99.90;;;;;;1801798;78;21138;-75
2021/05/18 03:14:23;;;;;;;21.57;12.28;;;12.00;99.90;;;;;;1796011;78;21117;-75
2021/05/18 03:16:51;;;;;;;28.52;13.38;;;11.90;99.90;;;;;;1803413;78;21243;-76
2021/05/18 03:19:19;;;;;;;26.20;12.40;;;12.10;99.90;;;;;;1804230;78;21592;-76
2021/05/18 03:21:47;;;;;;;27.15;13.68;;;12.00;99.90;;;;;;1805890;78;21142;-76
2021/05/18 03:24:15;;;;;;;28.73;14.47;;;12.00;99.90;;;;;;1798244;78;21097;-75
2021/05/18 03:26:48;;;;;;;26.75;13.43;;;12.00;99.90;;;;;;1802147;78;21138;-75
2021/05/18 03:29:26;;;;;;;25.77;12.80;;;12.20;99.90;;;;;;1799426;78;21195;-74
2021/05/18 03:34:39;;;;;;;28.35;12.40;;;12.00;99.90;;;;;;1803053;78;21155;-75
2021/05/18 03:37:22;;;;;;;21.00;11.95;;;12.10;99.90;;;;;;1801566;78;21146;-75
2021/05/18 03:39:46;;;;;;;19.87;11.63;;;12.10;99.90;;;;;;1798302;78;21113;-74
2021/05/18 03:42:18;;;;;;;21.82;12.68;;;12.20;99.90;;;;;;1798066;77;21439;-76
2021/05/18 03:44:56;;;;;;;23.92;12.30;;;12.10;99.90;;;;;;1795924;78;21122;-76
2021/05/18 03:53:21;;;;;;;26.30;12.73;;;12.20;99.90;;;;;;1805742;78;21187;-75
2021/05/18 03:58:41;;;;;;;21.93;11.78;;;12.10;99.90;;;;;;1797678;78;21048;-75
2021/05/18 04:04:07;;;;;;;26.55;12.63;;;12.00;99.90;;;;;;1804985;77;21518;-75
2021/05/18 04:17:14;;;;;;;25.32;12.78;;;11.90;99.90;;;;;;1798339;78;21189;-74
2021/05/18 04:19:56;;;;;;;24.12;13.35;;;11.80;99.90;;;;;;1802429;78;21608;-74
2021/05/18 04:41:23;;;;;;;21.00;12.07;;;11.90;99.90;;;;;;1762683;79;21861;-76
2021/05/18 04:52:10;;;;;;;24.10;11.75;;;12.10;99.90;;;;;;1810697;78;21608;-76
2021/05/18 05:00:06;;;;;;;18.77;11.80;;;12.30;99.90;;;;;;1803998;78;21165;-75
2021/05/18 05:03:00;;;;;;;20.57;11.45;;;12.20;99.90;;;;;;1809189;78;21174;-76
2021/05/18 05:08:03;;;;;;;22.98;11.33;;;12.10;99.90;;;;;;1811671;78;21276;-76
2021/05/18 05:15:40;;;;;;;;;;;12.20;99.90;;;;;;1809915;78;21571;-74
2021/05/18 05:18:08;;;;;;;22.27;11.95;;;12.30;99.90;;;;;;1809200;78;20519;-74
2021/05/18 05:20:36;;;;;;;19.37;12.00;;;12.40;99.90;;;;;;1820362;77;21106;-74
2021/05/18 05:23:04;;;;;;;17.27;11.30;;;12.40;99.90;;;;;;1822339;77;21132;-75
2021/05/18 05:25:32;;;;;;;20.45;12.23;;;12.30;99.90;;;;;;1808216;78;21173;-75
2021/05/18 05:28:00;;;;;;;21.93;12.07;;;12.40;99.90;;;;;;1818052;78;21126;-74
2021/05/18 05:30:27;;;;;;;18.87;11.08;;;12.40;99.90;;;;;;1804062;78;21120;-75
2021/05/18 05:32:55;;;;;;;21.52;11.93;;;12.50;99.90;;;;;;1829697;77;21080;-75
2021/05/18 05:35:22;;;;;;;18.48;11.30;;;12.60;99.90;;;;;;1828509;77;21536;-75
2021/05/18 05:37:51;;;;;;;19.20;11.63;;;12.60;99.90;;;;;;1826197;77;21063;-75
2021/05/18 05:40:18;;;;;;;22.15;11.00;;;12.60;99.90;;;;;;1830934;77;21129;-75
2021/05/18 05:42:46;;;;;;;21.75;12.07;;;12.60;99.90;;;;;;1808245;78;21228;-75
2021/05/18 05:45:14;;;;;;;21.15;12.40;;;12.50;99.90;;;;;;1811464;78;21545;-75
2021/05/18 05:47:42;;;;;;;21.37;11.53;;;12.50;99.90;;;;;;1810378;78;21067;-75
2021/05/18 05:50:10;;;;;;;19.52;12.20;;;12.50;99.90;;;;;;1809832;78;21113;-76
2021/05/18 05:52:39;;;;;;;22.25;12.98;;;12.60;99.90;;;;;;1804209;78;21538;-76
2021/05/18 05:55:09;;;;;;;19.48;12.03;;;12.70;99.90;;;;;;1806770;78;21162;-75
2021/05/18 05:57:37;;;;;;;23.25;12.25;;;12.80;99.90;;;;;;1814011;78;21145;-75
2021/05/18 06:00:07;;;;;;;20.15;12.18;;;12.90;99.90;;;;;;1808613;78;21778;-75
2021/05/18 06:02:36;;;;;;;21.23;13.03;;;12.90;99.90;;;;;;1809873;78;21223;-75
2021/05/18 06:05:04;;;;;;;21.40;13.48;;;12.80;99.90;;;;;;1808089;77;21588;-75
2021/05/18 06:07:31;;;;;;;16.05;12.10;;;12.80;99.90;;;;;;1804947;78;21137;-75
2021/05/18 06:10:05;;;;;;;26.05;11.85;;;12.90;99.90;;;;;;1811123;78;21082;-75
2021/05/18 06:12:44;;;;;;;16.62;11.93;;;12.90;99.90;;;;;;1807242;78;21141;-75
2021/05/18 06:18:03;;;;;;;18.37;11.83;;;13.10;99.90;;;;;;1804255;78;21164;-72
2021/05/18 06:47:32;;;;;;;13.00;9.20;;;13.40;99.90;;;;;;1806372;78;21131;-73
2021/05/18 06:50:28;;;;;;;12.90;8.83;;;13.50;99.90;;;;;;1811790;78;21619;-74
2021/05/18 06:52:40;;;;;;;15.90;9.15;;;13.40;99.90;;;;;;1808039;78;21142;-73
2021/05/18 06:55:10;;;;;;;19.42;9.50;;;13.40;99.90;;;;;;1807480;78;21082;-73
2021/05/18 06:57:39;;;;;;;15.95;8.05;;;13.50;99.90;;;;;;1779976;79;21146;-75
2021/05/18 07:00:11;;;;;;;15.00;8.30;;;13.50;99.90;;;;;;1791773;79;21164;-75
2021/05/18 07:02:42;;;;;;;13.25;8.55;;;13.60;99.90;;;;;;1825896;77;21198;-76
2021/05/18 07:05:29;;;;;;;18.70;11.03;;;13.60;99.90;;;;;;1791938;79;21463;-78
2021/05/18 07:07:45;;;;;;;13.05;8.40;;;13.60;99.90;;;;;;1790155;79;21272;-78
2021/05/18 07:10:13;;;;;;;11.48;7.80;;;13.50;99.90;;;;;;1830679;77;21150;-72
2021/05/18 07:12:41;;;;;;;13.05;8.08;;;13.60;99.90;;;;;;1803086;79;21180;-72
2021/05/18 07:15:08;;;;;;;10.53;7.25;;;13.60;99.90;;;;;;1829766;77;21141;-75
2021/05/18 07:17:36;;;;;;;10.23;7.45;;;13.70;99.90;;;;;;1793016;77;21105;-77
2021/05/18 07:20:04;;;;;;;12.35;6.78;;;13.60;99.90;;;;;;1834945;73;21137;-80
2021/05/18 07:22:32;;;;;;;9.70;5.85;;;13.70;99.90;;;;;;1837200;77;21183;-76
2021/05/18 07:25:00;;;;;;;8.80;5.50;;;13.80;99.90;;;;;;1831414;77;21111;-77
2021/05/18 07:27:28;;;;;;;11.00;6.17;;;13.90;99.90;;;;;;1831738;77;21358;-77
2021/05/18 07:29:55;;;;;;;9.25;5.95;;;14.00;99.90;;;;;;1838409;77;21218;-74
2021/05/18 07:32:23;;;;;;;11.48;6.22;;;13.90;99.90;;;;;;1831679;77;21122;-75
2021/05/18 07:34:51;;;;;;;8.73;5.70;;;14.10;99.90;;;;;;1828140;77;21564;-76
2021/05/18 07:37:19;;;;;;;9.55;4.97;;;14.10;99.90;;;;;;1849425;77;21231;-74
2021/05/18 07:39:46;;;;;;;6.15;4.75;;;14.10;99.90;;;;;;1848259;77;21150;-79
2021/05/18 07:42:13;;;;;;;12.80;5.60;;;14.00;99.90;;;;;;1848065;77;21110;-77
2021/05/18 07:44:41;;;;;;;9.50;5.37;;;14.00;99.90;;;;;;1844795;77;21090;-76
2021/05/18 07:47:12;;;;;;;8.65;5.72;;;14.00;99.90;;;;;;1845752;77;21102;-78
2021/05/18 07:49:42;;;;;;;11.15;5.65;;;14.00;99.90;;;;;;1839306;77;21553;-75
2021/05/18 08:00:40;;;;;;;6.28;4.83;;;14.20;99.90;;;;;;1849403;77;21191;-77
2021/05/18 08:05:52;;;;;;;7.45;5.60;;;14.20;99.90;;;;;;1843508;77;21349;-77
2021/05/18 08:08:21;;;;;;;8.33;6.53;;;14.20;99.90;;;;;;1849080;77;21103;-83
2021/05/18 08:10:51;;;;;;;9.95;5.90;;;14.20;99.90;;;;;;1849228;76;21117;-76
2021/05/18 08:13:24;;;;;;;8.20;4.92;;;14.30;99.90;;;;;;1848810;76;21091;-77
2021/05/18 08:21:11;;;;;;;8.30;5.60;;;14.50;99.90;;;;;;1846950;76;21121;-77
2021/05/18 09:28:46;;;;;;;8.43;4.10;;;14.70;99.90;;;;;;1842885;77;21079;-78
2021/05/18 10:21:45;;;;;;;4.25;2.67;;;16.00;99.90;;;;;;1840636;77;21710;-77
2021/05/18 10:26:50;;;;;;;4.67;2.90;;;16.30;99.90;;;;;;1843728;76;21122;-80
2021/05/18 10:36:42;;;;;;;3.35;2.30;;;16.30;99.90;;;;;;1848875;77;21130;-76
2021/05/18 10:39:30;;;;;;;6.50;2.67;;;16.20;99.90;;;;;;1846149;77;21661;-76
2021/05/18 10:41:59;;;;;;;2.90;2.58;;;16.40;99.90;;;;;;1844676;77;21138;-76
2021/05/18 10:44:26;;;;;;;9.35;2.92;;;16.60;99.90;;;;;;1847053;77;21118;-76
2021/05/18 10:47:02;;;;;;;5.08;3.50;;;16.70;99.90;;;;;;1850967;77;21144;-75
2021/05/18 10:49:36;;;;;;;4.25;3.20;;;16.80;99.90;;;;;;1843306;77;22800;-77
2021/05/18 10:52:08;;;;;;;5.83;3.02;;;16.60;99.90;;;;;;1844773;77;21035;-76
2021/05/18 10:54:41;;;;;;;5.00;3.17;;;16.40;99.90;;;;;;1847058;77;21249;-76
2021/05/18 10:57:09;;;;;;;;;;;16.50;99.90;;;;;;1848991;77;21184;-76
2021/05/18 10:59:46;;;;;;;4.40;2.90;;;16.50;99.90;;;;;;1851677;77;20301;-76
2021/05/18 11:02:25;;;;;;;4.45;2.37;;;16.50;99.90;;;;;;1843548;77;21062;-76
2021/05/18 11:05:12;;;;;;;3.02;2.10;;;16.50;99.90;;;;;;1849098;77;21552;-76
2021/05/18 11:07:42;;;;;;;4.72;3.10;;;16.50;99.90;;;;;;1850914;77;21144;-76
2021/05/18 11:10:15;;;;;;;3.75;2.60;;;16.50;99.60;;;;;;1846736;77;21541;-77
2021/05/18 11:12:44;;;;;;;4.92;3.20;;;16.50;99.00;;;;;;1846239;77;21070;-76
2021/05/18 11:15:14;;;;;;;5.45;2.83;;;16.50;99.20;;;;;;1849131;76;21582;-76
2021/05/18 11:17:49;;;;;;;3.85;2.80;;;16.40;99.90;;;;;;1850688;75;21109;-76
2021/05/18 11:20:24;;;;;;;6.87;2.95;;;16.30;99.90;;;;;;1843930;77;21196;-76
2021/05/18 11:25:56;;;;;;;3.98;2.80;;;16.50;99.90;;;;;;1848618;76;21374;-78
2021/05/18 11:28:27;;;;;;;4.60;2.55;;;16.60;99.90;;;;;;1844328;77;21145;-75
2021/05/18 11:30:57;;;;;;;4.05;3.00;;;16.70;99.90;;;;;;1848163;77;21571;-76
2021/05/18 11:33:35;;;;;;;3.37;2.62;;;17.00;98.70;;;;;;1849553;76;21183;-76
2021/05/18 11:36:09;;;;;;;4.25;2.90;;;17.10;99.30;;;;;;1846430;77;21568;-77
2021/05/18 11:38:39;;;;;;;4.75;3.00;;;17.10;99.00;;;;;;1844935;76;21211;-78
2021/05/18 11:41:08;;;;;;;4.53;2.65;;;17.00;99.00;;;;;;1848791;76;21263;-75
2021/05/18 11:43:40;;;;;;;3.90;2.77;;;17.10;99.90;;;;;;1846285;76;21165;-75
2021/05/18 11:46:11;;;;;;;5.25;2.42;;;17.00;99.90;;;;;;1847434;77;21606;-76
2021/05/18 11:48:44;;;;;;;5.83;2.65;;;16.90;99.90;;;;;;1845713;77;21195;-79
2021/05/18 11:51:15;;;;;;;4.85;2.50;;;17.00;99.30;;;;;;1847943;77;21173;-76
2021/05/18 11:53:46;;;;;;;4.47;2.52;;;17.10;99.00;;;;;;1846865;77;21106;-79
2021/05/18 11:56:31;;;;;;;3.70;2.40;;;17.20;99.90;;;;;;1845568;76;21191;-77
2021/05/18 11:59:10;;;;;;;3.70;2.67;;;17.40;99.60;;;;;;1845852;77;21047;-78
2021/05/18 12:01:46;;;;;;;4.95;2.60;;;17.80;97.90;;;;;;1848014;76;21142;-77
2021/05/18 12:04:16;;;;;;;4.92;2.10;;;18.10;98.20;;;;;;1847797;76;21295;-75
2021/05/18 12:06:59;;;;;;;10.03;2.65;;;17.80;99.00;;;;;;1843528;77;21117;-76
2021/05/18 12:09:29;;;;;;;4.80;2.40;;;17.60;97.50;;;;;;1845384;77;21114;-75
2021/05/18 12:12:00;;;;;;;5.75;2.30;;;17.40;98.40;;;;;;1843843;77;21183;-76
2021/05/18 12:14:28;;;;;;;2.90;2.00;;;17.30;99.90;;;;;;1849118;76;21094;-75
2021/05/18 12:16:57;;;;;;;5.22;2.55;;;17.00;99.90;;;;;;1849019;77;21651;-74
2021/05/18 12:19:25;;;;;;;5.03;2.70;;;16.80;99.90;;;;;;1845852;76;21208;-75
2021/05/18 12:21:56;;;;;;;3.30;2.30;;;16.70;99.90;;;;;;1848357;77;21187;-74
2021/05/18 12:24:25;;;;;;;3.95;2.22;;;16.50;99.90;;;;;;1847043;77;21173;-74
2021/05/18 12:27:01;;;;;;;4.58;2.62;;;16.40;99.90;;;;;;1846933;77;21157;-75
2021/05/18 12:29:37;;;;;;;4.08;2.42;;;16.50;99.90;;;;;;1849019;77;21162;-76
2021/05/18 12:32:17;;;;;;;4.58;2.12;;;16.80;99.90;;;;;;1850326;77;21102;-76
2021/05/18 12:34:46;;;;;;;4.03;2.20;;;17.10;99.90;;;;;;1842434;77;21091;-75
2021/05/18 12:37:15;;;;;;;3.80;2.08;;;17.50;99.90;;;;;;1849760;77;21056;-76
2021/05/18 12:39:45;;;;;;;4.53;2.33;;;17.60;99.90;;;;;;1846983;77;21056;-76
2021/05/18 12:42:15;;;;;;;6.55;2.35;;;17.50;99.90;;;;;;1851082;77;21117;-74
2021/05/18 12:44:52;;;;;;;3.27;2.50;;;17.20;99.90;;;;;;1843023;77;21070;-78
2021/05/18 12:47:39;;;;;;;4.28;2.00;;;17.20;99.90;;;;;;1847060;77;21682;-77
2021/05/18 12:50:11;;;;;;;4.00;2.45;;;17.10;99.90;;;;;;1845312;76;22462;-79
2021/05/18 12:52:42;;;;;;;7.60;2.72;;;17.10;99.90;;;;;;1842872;77;21552;-76
2021/05/18 12:55:30;;;;;;;4.92;2.90;;;17.10;99.90;;;;;;1848368;77;21078;-75
2021/05/18 12:58:02;;;;;;;7.47;2.90;;;17.10;99.90;;;;;;1846362;76;21261;-77
2021/05/18 13:00:38;;;;;;;3.72;2.55;;;17.00;99.90;;;;;;1847856;77;21502;-77
2021/05/18 13:03:20;;;;;;;3.58;2.30;;;17.20;99.90;;;;;;1846539;77;21250;-77
2021/05/18 13:05:49;;;;;;;4.97;2.67;;;17.20;99.90;;;;;;1852518;76;21082;-77
2021/05/18 13:08:20;;;;;;;5.30;2.40;;;17.00;99.90;;;;;;1847111;77;21560;-77
2021/05/18 13:13:40;;;;;;;6.15;2.60;;;17.60;99.90;;;;;;1843563;77;21631;-78
2021/05/18 13:16:14;;;;;;;7.80;2.95;;;17.50;99.90;;;;;;1845242;76;21110;-77
2021/05/18 13:18:58;;;;;;;5.60;2.65;;;17.30;99.90;;;;;;1845184;77;21074;-78
2021/05/18 13:21:33;;;;;;;4.58;2.92;;;17.20;99.90;;;;;;1842827;77;21176;-76
2021/05/18 13:26:35;;;;;;;4.45;2.83;;;16.80;99.90;;;;;;1843124;76;21587;-76
2021/05/18 13:29:08;;;;;;;7.25;3.00;;;16.60;99.90;;;;;;1844266;77;21172;-77
2021/05/18 13:31:38;;;;;;;4.90;2.85;;;16.50;99.90;;;;;;1845502;77;21624;-75
2021/05/18 13:34:08;;;;;;;3.58;2.50;;;16.30;99.90;;;;;;1841439;77;21118;-76
2021/05/18 13:36:37;;;;;;;3.80;2.77;;;16.20;99.90;;;;;;1843856;77;21114;-75
2021/05/18 13:39:08;;;;;;;5.35;2.83;;;15.90;99.90;;;;;;1845629;77;21523;-75
2021/05/18 13:41:36;;;;;;;5.08;3.10;;;15.70;99.90;;;;;;1851061;77;21141;-76
2021/05/18 13:44:07;;;;;;;4.20;3.10;;;15.70;99.90;;;;;;1842158;77;21094;-76
2021/05/18 13:46:36;;;;;;;6.22;3.50;;;15.70;99.90;;;;;;1849992;77;21106;-75
2021/05/18 13:49:04;;;;;;;3.72;2.98;;;15.50;99.90;;;;;;1849322;77;21083;-75
2021/05/18 13:51:33;;;;;;;4.72;3.15;;;15.50;99.90;;;;;;1848207;76;21099;-74
2021/05/18 13:54:00;;;;;;;4.62;3.10;;;15.50;99.90;;;;;;1844651;77;21070;-75
2021/05/18 13:56:31;;;;;;;4.78;3.37;;;15.30;99.90;;;;;;1842970;77;21059;-75
2021/05/18 13:58:57;;;;;;;4.33;3.30;;;15.40;99.90;;;;;;1848100;75;21176;-75
2021/05/18 14:01:24;;;;;;;6.22;3.47;;;15.20;99.90;;;;;;1848425;76;21102;-75
2021/05/18 14:03:54;;;;;;;4.83;3.58;;;15.30;99.90;;;;;;1845565;77;21128;-75
2021/05/18 14:06:21;;;;;;;5.72;3.77;;;15.40;99.90;;;;;;1847398;77;21139;-75
2021/05/18 14:08:49;;;;;;;3.67;2.90;;;15.50;99.90;;;;;;1844628;77;21094;-75
2021/05/18 14:11:22;;;;;;;6.78;2.90;;;15.60;99.90;;;;;;1842591;77;21125;-75
2021/05/18 14:13:53;;;;;;;3.25;2.50;;;15.40;99.90;;;;;;1846741;77;21590;-75
2021/05/18 14:16:22;;;;;;;3.00;2.43;;;15.30;99.90;;;;;;1851451;76;21197;-75
2021/05/18 14:18:53;;;;;;;4.22;2.50;;;15.20;99.90;;;;;;1848507;76;21067;-74
2021/05/18 14:21:23;;;;;;;2.15;1.92;;;15.20;99.90;;;;;;1843481;76;21235;-74
2021/05/18 14:26:23;;;;;;;4.45;3.00;;;15.50;99.90;;;;;;1846960;76;21165;-75
2021/05/18 14:28:50;;;;;;;5.05;2.98;;;15.60;99.90;;;;;;1844500;77;21578;-75
2021/05/18 14:31:18;;;;;;;4.45;3.00;;;15.80;99.90;;;;;;1846113;76;21643;-75
2021/05/18 14:33:46;;;;;;;5.17;3.30;;;15.70;99.90;;;;;;1844135;77;21082;-75
2021/05/18 14:36:14;;;;;;;7.22;3.50;;;15.70;99.90;;;;;;1848144;77;21071;-75
2021/05/18 14:38:45;;;;;;;8.65;3.37;;;15.80;99.90;;;;;;1847432;76;21074;-75
2021/05/18 14:44:03;;;;;;;5.05;2.75;;;16.00;99.90;;;;;;1846848;77;22319;-74
2021/05/18 14:46:42;;;;;;;4.70;3.08;;;16.30;99.90;;;;;;1846953;76;21130;-75
2021/05/18 14:54:49;;;;;;;4.42;2.60;;;15.90;99.90;;;;;;1846399;76;21126;-74
2021/05/18 14:57:12;;;;;;;4.33;2.85;;;15.70;99.90;;;;;;1843647;76;21187;-74
2021/05/18 14:59:40;;;;;;;5.75;2.50;;;15.60;99.90;;;;;;1849048;77;21087;-74
2021/05/18 15:02:08;;;;;;;3.20;2.20;;;15.70;99.90;;;;;;1852794;76;21489;-76
2021/05/18 15:04:35;;;;;;;3.17;2.22;;;15.80;99.90;;;;;;1844876;76;21556;-73
2021/05/18 15:07:07;;;;;;;2.65;2.00;;;15.90;99.90;;;;;;1845316;76;21150;-74
2021/05/18 15:09:39;;;;;;;4.05;1.80;;;16.20;99.90;;;;;;1844825;77;21232;-74
2021/05/18 15:12:10;;;;;;;2.90;2.50;;;16.50;99.90;;;;;;1847048;77;21138;-76
2021/05/18 15:14:38;;;;;;;4.87;1.70;;;16.50;99.90;;;;;;1849123;77;21067;-74
2021/05/18 15:17:06;;;;;;;2.25;1.67;;;16.40;99.90;;;;;;1868583;72;21188;-79
2021/05/18 15:19:34;;;;;;;3.10;1.52;;;16.40;99.90;;;;;;1873501;75;21111;-80
2021/05/18 15:22:01;;;;;;;2.02;1.55;;;16.40;99.90;;;;;;1871598;76;21432;-80
2021/05/18 15:24:29;;;;;;;2.77;1.87;;;16.30;99.90;;;;;;1868969;75;21183;-78
2021/05/18 15:26:58;;;;;;;3.92;1.60;;;16.10;99.90;;;;;;1853468;76;21102;-78
2021/05/18 15:29:26;;;;;;;3.90;1.82;;;16.00;99.90;;;;;;1836426;77;21063;-79
2021/05/18 15:31:54;;;;;;;3.12;1.98;;;16.10;99.90;;;;;;1837875;76;21189;-78
2021/05/18 15:34:21;;;;;;;3.45;1.80;;;16.00;99.90;;;;;;1842556;77;21145;-78
2021/05/18 15:36:49;;;;;;;3.12;2.25;;;16.10;99.90;;;;;;1841368;77;21185;-76
2021/05/18 15:39:17;;;;;;;2.62;2.05;;;16.10;99.90;;;;;;1836655;77;21058;-75
2021/05/18 15:41:44;;;;;;;2.92;1.87;;;16.20;99.90;;;;;;1840029;77;21062;-76
2021/05/18 15:44:12;;;;;;;2.90;2.10;;;16.30;99.90;;;;;;1835806;77;21178;-76
2021/05/18 15:46:40;;;;;;;3.60;2.00;;;16.60;99.90;;;;;;1840465;76;21079;-76
2021/05/18 15:49:07;;;;;;;2.45;2.10;;;17.30;99.90;;;;;;1844406;77;21168;-76
2021/05/18 15:51:35;;;;;;;2.85;2.42;;;17.70;99.90;;;;;;1838665;76;21083;-76
2021/05/18 15:54:03;;;;;;;3.27;2.52;;;17.70;99.90;;;;;;1840367;77;21611;-76
2021/05/18 15:56:30;;;;;;;3.12;2.37;;;17.40;99.90;;;;;;1838280;77;21635;-76
2021/05/18 15:58:58;;;;;;;4.12;2.83;;;17.10;99.90;;;;;;1835534;77;21098;-77
2021/05/18 16:01:25;;;;;;;2.83;2.40;;;17.00;99.90;;;;;;1843674;77;21079;-76
2021/05/18 16:03:53;;;;;;;6.28;3.00;;;17.00;99.90;;;;;;1833782;77;21115;-76
2021/05/18 16:06:21;;;;;;;6.08;3.20;;;16.70;99.90;;;;;;1835447;77;21180;-77
2021/05/18 16:11:18;;;;;;;3.90;2.85;;;16.30;99.90;;;;;;1835211;77;21090;-78
2021/05/18 16:13:46;;;;;;;3.90;2.33;;;16.00;99.90;;;;;;1831091;77;21144;-75
2021/05/18 16:16:16;;;;;;;5.40;2.85;;;16.10;99.90;;;;;;1832114;77;21154;-77
2021/05/18 16:18:44;;;;;;;3.33;2.37;;;16.30;99.90;;;;;;1835919;77;21144;-76
2021/05/18 16:21:19;;;;;;;3.37;2.40;;;16.60;99.90;;;;;;1837143;77;21587;-76
2021/05/18 16:23:43;;;;;;;;;;;16.60;99.90;;;;;;1832466;76;21122;-76
2021/05/18 16:26:11;;;;;;;4.17;2.60;;;16.50;99.90;;;;;;1849753;77;20196;-76
2021/05/18 16:28:38;;;;;;;3.50;2.22;;;16.30;99.90;;;;;;1830183;77;21164;-77
2021/05/18 16:31:09;;;;;;;4.80;2.30;;;16.50;99.90;;;;;;1835825;77;21156;-77
2021/05/18 16:33:39;;;;;;;2.87;2.25;;;16.40;99.90;;;;;;1831874;77;21161;-77
2021/05/18 16:36:08;;;;;;;3.02;2.20;;;16.20;99.90;;;;;;1837029;77;21187;-77
2021/05/18 16:38:36;;;;;;;4.92;2.12;;;16.10;99.90;;;;;;1840032;76;21348;-76
2021/05/18 16:41:04;;;;;;;3.37;2.17;;;16.10;99.90;;;;;;1833836;77;21251;-76
2021/05/18 16:43:33;;;;;;;2.87;2.10;;;16.20;99.90;;;;;;1834576;76;21191;-76
2021/05/18 16:46:01;;;;;;;4.30;2.08;;;16.30;99.90;;;;;;1839876;77;21293;-76
2021/05/18 16:48:29;;;;;;;3.00;1.98;;;16.20;99.90;;;;;;1826621;76;21575;-77
2021/05/18 16:50:58;;;;;;;2.60;1.90;;;16.20;99.90;;;;;;1840647;76;21107;-76
2021/05/18 16:53:27;;;;;;;2.52;1.70;;;16.20;99.90;;;;;;1832678;76;21117;-75
2021/05/18 16:55:56;;;;;;;2.10;1.70;;;16.00;99.90;;;;;;1837344;77;21645;-77
2021/05/18 16:58:23;;;;;;;4.33;1.92;;;16.00;99.90;;;;;;1834718;77;21118;-76
2021/05/18 17:00:51;;;;;;;3.10;2.10;;;15.90;99.90;;;;;;1827944;77;21560;-77
2021/05/18 17:03:18;;;;;;;4.42;1.90;;;15.60;99.90;;;;;;1830428;77;21659;-76
2021/05/18 17:05:46;;;;;;;4.92;2.10;;;15.60;99.90;;;;;;1835228;77;21138;-77
2021/05/18 17:08:13;;;;;;;2.75;1.90;;;15.60;99.90;;;;;;1839465;77;21113;-76
2021/05/18 17:10:42;;;;;;;2.80;1.82;;;15.80;99.90;;;;;;1850462;76;21401;-76
2021/05/18 17:13:11;;;;;;;3.25;1.70;;;15.80;99.90;;;;;;1834879;77;21197;-76
2021/05/18 17:15:39;;;;;;;2.50;1.72;;;15.60;99.90;;;;;;1837094;77;21169;-76
2021/05/18 17:18:07;;;;;;;3.10;1.90;;;15.50;99.90;;;;;;1836010;77;21181;-77
2021/05/18 17:20:36;;;;;;;6.45;2.00;;;15.40;99.90;;;;;;1833672;76;21220;-76
2021/05/18 17:23:05;;;;;;;4.40;1.90;;;15.10;99.90;;;;;;1839179;77;21560;-77
2021/05/18 17:25:33;;;;;;;2.42;1.77;;;15.10;99.90;;;;;;1836021;76;21110;-76
2021/05/18 17:28:00;;;;;;;4.28;1.77;;;15.20;99.90;;;;;;1838534;76;21129;-79